sensor_id;sensor_type;location;lat;lon;timestamp;P1;durP1;ratioP1;P2;durP2;ratioP2
5833;SDS011;2943;48.012;10.968;2023-05-10T00:00:14;2.03;;;1.93;;
5833;SDS011;2943;48.012;10.968;2023-05-10T00:02:42;2.70;;;1.77;;
5833;SDS011;2943;48.012;10.968;2023-05-10T00:05:09;1.70;;;1.60;;
5833;SDS011;2943;48.012;10.968;2023-05-10T00:07:36;1.77;;;1.67;;
5833;SDS011;2943;48.012;10.968;2023-05-10T00:10:03;1.70;;;1.60;;
5833;SDS011;2943;48.012;10.968;2023-05-10T00:12:31;1.30;;;1.20;;
5833;SDS011;2943;48.012;10.968;2023-05-10T00:14:57;4.50;;;2.30;;
5833;SDS011;2943;48.012;10.968;2023-05-10T00:17:24;1.17;;;1.07;;
5833;SDS011;2943;48.012;10.968;2023-05-10T00:19:52;2.07;;;1.30;;
5833;SDS011;2943;48.012;10.968;2023-05-10T00:22:19;2.67;;;1.20;;
5833;SDS011;2943;48.012;10.968;2023-05-10T00:24:46;1.47;;;1.37;;
5833;SDS011;2943;48.012;10.968;2023-05-10T00:27:13;1.70;;;1.60;;
5833;SDS011;2943;48.012;10.968;2023-05-10T00:29:40;1.20;;;1.20;;
5833;SDS011;2943;48.012;10.968;2023-05-10T00:32:07;1.30;;;1.20;;
5833;SDS011;2943;48.012;10.968;2023-05-10T00:34:34;2.30;;;1.43;;
5833;SDS011;2943;48.012;10.968;2023-05-10T00:37:02;1.43;;;1.33;;
5833;SDS011;2943;48.012;10.968;2023-05-10T00:39:29;1.40;;;1.30;;
5833;SDS011;2943;48.012;10.968;2023-05-10T00:41:56;1.20;;;1.10;;
5833;SDS011;2943;48.012;10.968;2023-05-10T00:44:23;1.30;;;1.20;;
5833;SDS011;2943;48.012;10.968;2023-05-10T00:46:50;1.43;;;1.20;;
5833;SDS011;2943;48.012;10.968;2023-05-10T00:49:17;1.27;;;1.17;;
5833;SDS011;2943;48.012;10.968;2023-05-10T00:51:44;1.60;;;1.50;;
5833;SDS011;2943;48.012;10.968;2023-05-10T00:54:13;1.20;;;1.20;;
5833;SDS011;2943;48.012;10.968;2023-05-10T00:56:41;1.50;;;1.40;;
5833;SDS011;2943;48.012;10.968;2023-05-10T00:59:08;2.20;;;1.40;;
5833;SDS011;2943;48.012;10.968;2023-05-10T01:01:35;1.60;;;1.40;;
5833;SDS011;2943;48.012;10.968;2023-05-10T01:04:02;1.43;;;1.27;;
5833;SDS011;2943;48.012;10.968;2023-05-10T01:06:29;1.50;;;1.37;;
5833;SDS011;2943;48.012;10.968;2023-05-10T01:08:57;1.70;;;1.60;;
5833;SDS011;2943;48.012;10.968;2023-05-10T01:11:25;1.33;;;1.27;;
5833;SDS011;2943;48.012;10.968;2023-05-10T01:13:54;1.30;;;1.20;;
5833;SDS011;2943;48.012;10.968;2023-05-10T01:16:23;1.77;;;1.20;;
5833;SDS011;2943;48.012;10.968;2023-05-10T01:18:52;1.43;;;1.33;;
5833;SDS011;2943;48.012;10.968;2023-05-10T01:21:22;1.47;;;1.37;;
5833;SDS011;2943;48.012;10.968;2023-05-10T01:24:09;1.37;;;1.20;;
5833;SDS011;2943;48.012;10.968;2023-05-10T01:27:03;1.10;;;1.10;;
5833;SDS011;2943;48.012;10.968;2023-05-10T01:30:00;1.30;;;1.20;;
5833;SDS011;2943;48.012;10.968;2023-05-10T01:32:37;1.40;;;1.30;;
5833;SDS011;2943;48.012;10.968;2023-05-10T01:35:10;1.40;;;1.30;;
5833;SDS011;2943;48.012;10.968;2023-05-10T01:37:46;1.70;;;1.40;;
5833;SDS011;2943;48.012;10.968;2023-05-10T01:40:19;1.73;;;1.60;;
5833;SDS011;2943;48.012;10.968;2023-05-10T01:42:53;1.30;;;1.20;;
5833;SDS011;2943;48.012;10.968;2023-05-10T01:45:29;1.50;;;1.40;;
5833;SDS011;2943;48.012;10.968;2023-05-10T01:48:04;2.60;;;1.30;;
5833;SDS011;2943;48.012;10.968;2023-05-10T01:50:33;1.57;;;1.20;;
5833;SDS011;2943;48.012;10.968;2023-05-10T01:53:02;1.07;;;1.07;;
5833;SDS011;2943;48.012;10.968;2023-05-10T01:55:33;2.40;;;1.20;;
5833;SDS011;2943;48.012;10.968;2023-05-10T01:58:06;1.30;;;1.20;;
5833;SDS011;2943;48.012;10.968;2023-05-10T02:00:35;1.17;;;1.07;;
5833;SDS011;2943;48.012;10.968;2023-05-10T02:03:07;1.10;;;1.10;;
5833;SDS011;2943;48.012;10.968;2023-05-10T02:05:36;1.37;;;1.27;;
5833;SDS011;2943;48.012;10.968;2023-05-10T02:08:05;2.10;;;1.20;;
5833;SDS011;2943;48.012;10.968;2023-05-10T02:10:33;1.23;;;1.17;;
5833;SDS011;2943;48.012;10.968;2023-05-10T02:13:01;2.70;;;1.17;;
5833;SDS011;2943;48.012;10.968;2023-05-10T02:15:29;1.23;;;1.13;;
5833;SDS011;2943;48.012;10.968;2023-05-10T02:17:57;1.20;;;1.10;;
5833;SDS011;2943;48.012;10.968;2023-05-10T02:20:27;1.03;;;0.90;;
5833;SDS011;2943;48.012;10.968;2023-05-10T02:22:55;1.00;;;1.00;;
5833;SDS011;2943;48.012;10.968;2023-05-10T02:25:23;2.63;;;1.20;;
5833;SDS011;2943;48.012;10.968;2023-05-10T02:27:51;1.00;;;1.00;;
5833;SDS011;2943;48.012;10.968;2023-05-10T02:30:20;1.33;;;1.23;;
5833;SDS011;2943;48.012;10.968;2023-05-10T02:32:48;1.23;;;1.20;;
5833;SDS011;2943;48.012;10.968;2023-05-10T02:35:16;2.00;;;1.00;;
5833;SDS011;2943;48.012;10.968;2023-05-10T02:37:45;1.10;;;1.10;;
5833;SDS011;2943;48.012;10.968;2023-05-10T02:40:13;1.10;;;1.00;;
5833;SDS011;2943;48.012;10.968;2023-05-10T02:42:42;1.00;;;0.90;;
5833;SDS011;2943;48.012;10.968;2023-05-10T02:45:11;1.37;;;1.20;;
5833;SDS011;2943;48.012;10.968;2023-05-10T02:47:40;1.23;;;1.17;;
5833;SDS011;2943;48.012;10.968;2023-05-10T02:50:07;1.30;;;1.20;;
5833;SDS011;2943;48.012;10.968;2023-05-10T02:52:37;2.93;;;1.23;;
5833;SDS011;2943;48.012;10.968;2023-05-10T02:55:09;1.10;;;1.10;;
5833;SDS011;2943;48.012;10.968;2023-05-10T02:57:40;1.37;;;1.10;;
5833;SDS011;2943;48.012;10.968;2023-05-10T03:00:09;1.00;;;1.00;;
5833;SDS011;2943;48.012;10.968;2023-05-10T03:02:37;1.20;;;1.10;;
5833;SDS011;2943;48.012;10.968;2023-05-10T03:05:04;1.27;;;1.10;;
5833;SDS011;2943;48.012;10.968;2023-05-10T03:07:31;1.03;;;1.03;;
5833;SDS011;2943;48.012;10.968;2023-05-10T03:09:59;1.00;;;1.00;;
5833;SDS011;2943;48.012;10.968;2023-05-10T03:12:30;1.10;;;1.10;;
5833;SDS011;2943;48.012;10.968;2023-05-10T03:15:03;0.87;;;0.87;;
5833;SDS011;2943;48.012;10.968;2023-05-10T03:17:39;3.30;;;1.10;;
5833;SDS011;2943;48.012;10.968;2023-05-10T03:20:12;0.90;;;0.90;;
5833;SDS011;2943;48.012;10.968;2023-05-10T03:22:47;1.00;;;1.00;;
5833;SDS011;2943;48.012;10.968;2023-05-10T03:25:17;1.53;;;1.00;;
5833;SDS011;2943;48.012;10.968;2023-05-10T03:27:48;1.00;;;1.00;;
5833;SDS011;2943;48.012;10.968;2023-05-10T03:30:15;1.70;;;1.00;;
5833;SDS011;2943;48.012;10.968;2023-05-10T03:32:43;1.00;;;1.00;;
5833;SDS011;2943;48.012;10.968;2023-05-10T03:35:10;1.20;;;1.10;;
5833;SDS011;2943;48.012;10.968;2023-05-10T03:37:39;1.67;;;1.10;;
5833;SDS011;2943;48.012;10.968;2023-05-10T03:40:06;1.00;;;1.00;;
5833;SDS011;2943;48.012;10.968;2023-05-10T03:42:34;0.93;;;0.93;;
5833;SDS011;2943;48.012;10.968;2023-05-10T03:45:02;1.30;;;1.00;;
5833;SDS011;2943;48.012;10.968;2023-05-10T03:47:29;1.03;;;0.93;;
5833;SDS011;2943;48.012;10.968;2023-05-10T03:49:56;1.02;;;1.02;;
5833;SDS011;2943;48.012;10.968;2023-05-10T03:52:23;0.90;;;0.90;;
5833;SDS011;2943;48.012;10.968;2023-05-10T03:54:50;2.63;;;1.20;;
5833;SDS011;2943;48.012;10.968;2023-05-10T03:57:17;1.10;;;1.00;;
5833;SDS011;2943;48.012;10.968;2023-05-10T03:59:44;1.37;;;1.27;;
5833;SDS011;2943;48.012;10.968;2023-05-10T04:02:12;1.20;;;1.10;;
5833;SDS011;2943;48.012;10.968;2023-05-10T04:04:39;5.80;;;1.20;;
5833;SDS011;2943;48.012;10.968;2023-05-10T04:07:05;1.00;;;1.00;;
5833;SDS011;2943;48.012;10.968;2023-05-10T04:09:32;1.13;;;1.10;;
5833;SDS011;2943;48.012;10.968;2023-05-10T04:11:59;1.00;;;1.00;;
5833;SDS011;2943;48.012;10.968;2023-05-10T04:14:27;1.30;;;1.20;;
5833;SDS011;2943;48.012;10.968;2023-05-10T04:16:54;2.90;;;1.23;;
5833;SDS011;2943;48.012;10.968;2023-05-10T04:19:22;1.37;;;1.27;;
5833;SDS011;2943;48.012;10.968;2023-05-10T04:21:49;1.10;;;1.10;;
5833;SDS011;2943;48.012;10.968;2023-05-10T04:24:16;1.70;;;1.53;;
5833;SDS011;2943;48.012;10.968;2023-05-10T04:26:42;3.97;;;1.30;;
5833;SDS011;2943;48.012;10.968;2023-05-10T04:29:10;1.30;;;1.20;;
5833;SDS011;2943;48.012;10.968;2023-05-10T04:31:37;1.30;;;1.20;;
5833;SDS011;2943;48.012;10.968;2023-05-10T04:34:04;1.50;;;1.40;;
5833;SDS011;2943;48.012;10.968;2023-05-10T04:36:32;2.97;;;1.40;;
5833;SDS011;2943;48.012;10.968;2023-05-10T04:39:00;1.80;;;1.70;;
5833;SDS011;2943;48.012;10.968;2023-05-10T04:41:28;4.30;;;1.50;;
5833;SDS011;2943;48.012;10.968;2023-05-10T04:43:56;1.07;;;1.07;;
5833;SDS011;2943;48.012;10.968;2023-05-10T04:46:22;1.53;;;1.20;;
5833;SDS011;2943;48.012;10.968;2023-05-10T04:48:49;8.80;;;1.30;;
5833;SDS011;2943;48.012;10.968;2023-05-10T04:51:16;2.47;;;1.67;;
5833;SDS011;2943;48.012;10.968;2023-05-10T04:53:44;1.80;;;1.20;;
5833;SDS011;2943;48.012;10.968;2023-05-10T04:56:11;1.77;;;1.40;;
5833;SDS011;2943;48.012;10.968;2023-05-10T04:58:38;1.57;;;1.47;;
5833;SDS011;2943;48.012;10.968;2023-05-10T05:01:05;6.10;;;1.90;;
5833;SDS011;2943;48.012;10.968;2023-05-10T05:03:33;1.70;;;1.60;;
5833;SDS011;2943;48.012;10.968;2023-05-10T05:05:59;1.60;;;1.50;;
5833;SDS011;2943;48.012;10.968;2023-05-10T05:08:26;3.10;;;2.00;;
5833;SDS011;2943;48.012;10.968;2023-05-10T05:10:54;2.50;;;1.97;;
5833;SDS011;2943;48.012;10.968;2023-05-10T05:13:21;2.13;;;2.03;;
5833;SDS011;2943;48.012;10.968;2023-05-10T05:15:48;1.80;;;1.70;;
5833;SDS011;2943;48.012;10.968;2023-05-10T05:18:15;1.90;;;1.80;;
5833;SDS011;2943;48.012;10.968;2023-05-10T05:20:42;2.07;;;1.97;;
5833;SDS011;2943;48.012;10.968;2023-05-10T05:23:09;1.70;;;1.60;;
5833;SDS011;2943;48.012;10.968;2023-05-10T05:25:35;2.40;;;2.20;;
5833;SDS011;2943;48.012;10.968;2023-05-10T05:28:04;4.50;;;2.23;;
5833;SDS011;2943;48.012;10.968;2023-05-10T05:30:31;4.70;;;1.90;;
5833;SDS011;2943;48.012;10.968;2023-05-10T05:32:57;2.10;;;1.90;;
5833;SDS011;2943;48.012;10.968;2023-05-10T05:35:24;3.47;;;2.00;;
5833;SDS011;2943;48.012;10.968;2023-05-10T05:37:51;1.80;;;1.70;;
5833;SDS011;2943;48.012;10.968;2023-05-10T05:40:18;3.70;;;1.90;;
5833;SDS011;2943;48.012;10.968;2023-05-10T05:42:45;1.93;;;1.83;;
5833;SDS011;2943;48.012;10.968;2023-05-10T05:45:13;4.03;;;1.90;;
5833;SDS011;2943;48.012;10.968;2023-05-10T05:47:40;5.10;;;1.77;;
5833;SDS011;2943;48.012;10.968;2023-05-10T05:50:07;1.80;;;1.70;;
5833;SDS011;2943;48.012;10.968;2023-05-10T05:52:35;4.50;;;1.47;;
5833;SDS011;2943;48.012;10.968;2023-05-10T05:55:02;1.77;;;1.67;;
5833;SDS011;2943;48.012;10.968;2023-05-10T05:57:29;1.60;;;1.50;;
5833;SDS011;2943;48.012;10.968;2023-05-10T05:59:56;1.70;;;1.60;;
5833;SDS011;2943;48.012;10.968;2023-05-10T06:02:25;2.07;;;1.80;;
5833;SDS011;2943;48.012;10.968;2023-05-10T06:04:52;1.80;;;1.70;;
5833;SDS011;2943;48.012;10.968;2023-05-10T06:07:19;3.07;;;1.60;;
5833;SDS011;2943;48.012;10.968;2023-05-10T06:09:46;1.57;;;1.47;;
5833;SDS011;2943;48.012;10.968;2023-05-10T06:12:21;17.83;;;2.93;;
5833;SDS011;2943;48.012;10.968;2023-05-10T06:14:48;58.90;;;3.70;;
5833;SDS011;2943;48.012;10.968;2023-05-10T06:23:57;1.87;;;1.73;;
5833;SDS011;2943;48.012;10.968;2023-05-10T06:26:25;3.33;;;1.57;;
5833;SDS011;2943;48.012;10.968;2023-05-10T06:28:52;1.60;;;1.50;;
5833;SDS011;2943;48.012;10.968;2023-05-10T06:31:20;2.73;;;1.70;;
5833;SDS011;2943;48.012;10.968;2023-05-10T06:33:47;2.27;;;1.50;;
5833;SDS011;2943;48.012;10.968;2023-05-10T06:36:13;2.00;;;1.80;;
5833;SDS011;2943;48.012;10.968;2023-05-10T06:38:40;1.70;;;1.60;;
5833;SDS011;2943;48.012;10.968;2023-05-10T06:41:08;3.03;;;1.90;;
5833;SDS011;2943;48.012;10.968;2023-05-10T06:43:35;2.53;;;1.77;;
5833;SDS011;2943;48.012;10.968;2023-05-10T06:46:05;3.00;;;1.70;;
5833;SDS011;2943;48.012;10.968;2023-05-10T06:48:32;3.23;;;1.90;;
5833;SDS011;2943;48.012;10.968;2023-05-10T06:50:59;1.70;;;1.60;;
5833;SDS011;2943;48.012;10.968;2023-05-10T06:53:26;1.80;;;1.70;;
5833;SDS011;2943;48.012;10.968;2023-05-10T06:55:53;2.33;;;1.67;;
5833;SDS011;2943;48.012;10.968;2023-05-10T06:58:21;2.17;;;1.80;;
5833;SDS011;2943;48.012;10.968;2023-05-10T07:00:48;1.77;;;1.67;;
5833;SDS011;2943;48.012;10.968;2023-05-10T07:03:15;1.70;;;1.60;;
5833;SDS011;2943;48.012;10.968;2023-05-10T07:05:42;3.63;;;1.70;;
5833;SDS011;2943;48.012;10.968;2023-05-10T07:08:09;2.10;;;1.90;;
5833;SDS011;2943;48.012;10.968;2023-05-10T07:10:35;2.17;;;1.87;;
5833;SDS011;2943;48.012;10.968;2023-05-10T07:13:02;1.87;;;1.77;;
5833;SDS011;2943;48.012;10.968;2023-05-10T07:15:30;2.23;;;1.90;;
5833;SDS011;2943;48.012;10.968;2023-05-10T07:17:58;3.17;;;1.80;;
5833;SDS011;2943;48.012;10.968;2023-05-10T07:20:25;5.17;;;2.03;;
5833;SDS011;2943;48.012;10.968;2023-05-10T07:22:52;2.10;;;1.90;;
5833;SDS011;2943;48.012;10.968;2023-05-10T07:25:19;3.90;;;2.23;;
5833;SDS011;2943;48.012;10.968;2023-05-10T07:27:46;1.80;;;1.70;;
5833;SDS011;2943;48.012;10.968;2023-05-10T07:30:13;2.37;;;1.80;;
5833;SDS011;2943;48.012;10.968;2023-05-10T07:32:42;2.37;;;2.17;;
5833;SDS011;2943;48.012;10.968;2023-05-10T07:35:09;6.70;;;1.90;;
5833;SDS011;2943;48.012;10.968;2023-05-10T07:37:35;4.47;;;1.87;;
5833;SDS011;2943;48.012;10.968;2023-05-10T07:40:02;3.93;;;2.10;;
5833;SDS011;2943;48.012;10.968;2023-05-10T07:42:30;2.30;;;1.73;;
5833;SDS011;2943;48.012;10.968;2023-05-10T07:44:57;2.03;;;1.60;;
5833;SDS011;2943;48.012;10.968;2023-05-10T07:47:23;1.80;;;1.70;;
5833;SDS011;2943;48.012;10.968;2023-05-10T07:49:52;6.60;;;1.67;;
5833;SDS011;2943;48.012;10.968;2023-05-10T07:52:19;2.10;;;1.60;;
5833;SDS011;2943;48.012;10.968;2023-05-10T07:54:46;1.67;;;1.57;;
5833;SDS011;2943;48.012;10.968;2023-05-10T07:57:13;3.30;;;1.80;;
5833;SDS011;2943;48.012;10.968;2023-05-10T07:59:42;1.80;;;1.70;;
5833;SDS011;2943;48.012;10.968;2023-05-10T08:02:10;1.77;;;1.67;;
5833;SDS011;2943;48.012;10.968;2023-05-10T08:04:38;1.80;;;1.70;;
5833;SDS011;2943;48.012;10.968;2023-05-10T08:07:08;1.90;;;1.60;;
5833;SDS011;2943;48.012;10.968;2023-05-10T08:09:35;2.03;;;1.80;;
5833;SDS011;2943;48.012;10.968;2023-05-10T08:12:02;2.17;;;1.90;;
5833;SDS011;2943;48.012;10.968;2023-05-10T08:14:30;2.00;;;1.90;;
5833;SDS011;2943;48.012;10.968;2023-05-10T08:16:57;1.70;;;1.57;;
5833;SDS011;2943;48.012;10.968;2023-05-10T08:19:24;4.83;;;2.27;;
5833;SDS011;2943;48.012;10.968;2023-05-10T08:21:51;2.17;;;1.70;;
5833;SDS011;2943;48.012;10.968;2023-05-10T08:24:21;1.80;;;1.70;;
5833;SDS011;2943;48.012;10.968;2023-05-10T08:26:48;1.90;;;1.80;;
5833;SDS011;2943;48.012;10.968;2023-05-10T08:29:15;2.00;;;1.80;;
5833;SDS011;2943;48.012;10.968;2023-05-10T08:31:42;1.90;;;1.80;;
5833;SDS011;2943;48.012;10.968;2023-05-10T08:34:09;1.80;;;1.70;;
5833;SDS011;2943;48.012;10.968;2023-05-10T08:36:36;7.23;;;2.10;;
5833;SDS011;2943;48.012;10.968;2023-05-10T08:39:03;2.07;;;1.97;;
5833;SDS011;2943;48.012;10.968;2023-05-10T08:41:31;2.00;;;1.90;;
5833;SDS011;2943;48.012;10.968;2023-05-10T08:44:02;3.67;;;2.57;;
5833;SDS011;2943;48.012;10.968;2023-05-10T08:46:30;2.60;;;2.27;;
5833;SDS011;2943;48.012;10.968;2023-05-10T08:49:01;1.87;;;1.70;;
5833;SDS011;2943;48.012;10.968;2023-05-10T08:51:31;3.03;;;2.40;;
5833;SDS011;2943;48.012;10.968;2023-05-10T08:54:01;2.23;;;2.10;;
5833;SDS011;2943;48.012;10.968;2023-05-10T08:56:31;2.37;;;1.80;;
5833;SDS011;2943;48.012;10.968;2023-05-10T08:58:58;3.70;;;1.87;;
5833;SDS011;2943;48.012;10.968;2023-05-10T09:01:25;8.67;;;1.80;;
5833;SDS011;2943;48.012;10.968;2023-05-10T09:03:53;2.13;;;1.80;;
5833;SDS011;2943;48.012;10.968;2023-05-10T09:06:21;2.17;;;1.87;;
5833;SDS011;2943;48.012;10.968;2023-05-10T09:08:48;2.23;;;1.90;;
5833;SDS011;2943;48.012;10.968;2023-05-10T09:11:15;1.90;;;1.80;;
5833;SDS011;2943;48.012;10.968;2023-05-10T09:13:44;2.03;;;1.90;;
5833;SDS011;2943;48.012;10.968;2023-05-10T09:16:14;1.77;;;1.67;;
5833;SDS011;2943;48.012;10.968;2023-05-10T09:18:40;1.73;;;1.57;;
5833;SDS011;2943;48.012;10.968;2023-05-10T09:21:07;2.20;;;2.00;;
5833;SDS011;2943;48.012;10.968;2023-05-10T09:23:35;4.30;;;1.60;;
5833;SDS011;2943;48.012;10.968;2023-05-10T09:26:02;1.93;;;1.53;;
5833;SDS011;2943;48.012;10.968;2023-05-10T09:28:31;1.97;;;1.40;;
5833;SDS011;2943;48.012;10.968;2023-05-10T09:31:00;1.60;;;1.50;;
5833;SDS011;2943;48.012;10.968;2023-05-10T09:33:27;1.43;;;1.33;;
5833;SDS011;2943;48.012;10.968;2023-05-10T09:35:53;1.70;;;1.60;;
5833;SDS011;2943;48.012;10.968;2023-05-10T09:38:20;2.30;;;1.83;;
5833;SDS011;2943;48.012;10.968;2023-05-10T09:40:50;3.23;;;1.60;;
5833;SDS011;2943;48.012;10.968;2023-05-10T09:43:20;3.00;;;1.40;;
5833;SDS011;2943;48.012;10.968;2023-05-10T09:45:47;6.00;;;1.53;;
5833;SDS011;2943;48.012;10.968;2023-05-10T09:48:16;2.07;;;1.33;;
5833;SDS011;2943;48.012;10.968;2023-05-10T09:50:43;2.70;;;1.73;;
5833;SDS011;2943;48.012;10.968;2023-05-10T09:53:10;4.90;;;2.47;;
5833;SDS011;2943;48.012;10.968;2023-05-10T09:55:42;1.60;;;1.50;;
5833;SDS011;2943;48.012;10.968;2023-05-10T09:58:11;3.33;;;1.30;;
5833;SDS011;2943;48.012;10.968;2023-05-10T10:00:39;4.33;;;1.50;;
5833;SDS011;2943;48.012;10.968;2023-05-10T10:03:11;1.57;;;1.30;;
5833;SDS011;2943;48.012;10.968;2023-05-10T10:05:41;5.53;;;1.60;;
5833;SDS011;2943;48.012;10.968;2023-05-10T10:08:09;3.23;;;1.70;;
5833;SDS011;2943;48.012;10.968;2023-05-10T10:10:36;3.27;;;1.70;;
5833;SDS011;2943;48.012;10.968;2023-05-10T10:13:05;1.87;;;1.77;;
5833;SDS011;2943;48.012;10.968;2023-05-10T10:15:32;1.90;;;1.70;;
5833;SDS011;2943;48.012;10.968;2023-05-10T10:18:00;2.00;;;1.80;;
5833;SDS011;2943;48.012;10.968;2023-05-10T10:20:28;3.60;;;1.90;;
5833;SDS011;2943;48.012;10.968;2023-05-10T10:22:57;2.00;;;1.87;;
5833;SDS011;2943;48.012;10.968;2023-05-10T10:25:24;2.53;;;1.73;;
5833;SDS011;2943;48.012;10.968;2023-05-10T10:28:00;1.93;;;1.83;;
5833;SDS011;2943;48.012;10.968;2023-05-10T10:30:42;3.60;;;2.03;;
5833;SDS011;2943;48.012;10.968;2023-05-10T10:36:06;3.17;;;2.40;;
5833;SDS011;2943;48.012;10.968;2023-05-10T10:38:38;11.47;;;2.50;;
5833;SDS011;2943;48.012;10.968;2023-05-10T10:41:28;2.47;;;2.17;;
5833;SDS011;2943;48.012;10.968;2023-05-10T10:47:04;1.80;;;1.70;;
5833;SDS011;2943;48.012;10.968;2023-05-10T10:49:37;3.03;;;1.80;;
5833;SDS011;2943;48.012;10.968;2023-05-10T10:52:21;2.43;;;1.90;;
5833;SDS011;2943;48.012;10.968;2023-05-10T10:54:56;4.23;;;2.20;;
5833;SDS011;2943;48.012;10.968;2023-05-10T10:57:26;2.03;;;1.93;;
5833;SDS011;2943;48.012;10.968;2023-05-10T11:02:50;3.40;;;2.50;;
5833;SDS011;2943;48.012;10.968;2023-05-10T11:08:14;3.20;;;1.93;;
5833;SDS011;2943;48.012;10.968;2023-05-10T11:10:52;2.50;;;2.30;;
5833;SDS011;2943;48.012;10.968;2023-05-10T11:13:34;3.03;;;2.17;;
5833;SDS011;2943;48.012;10.968;2023-05-10T11:16:11;2.80;;;2.30;;
5833;SDS011;2943;48.012;10.968;2023-05-10T11:18:40;3.30;;;2.40;;
5833;SDS011;2943;48.012;10.968;2023-05-10T11:21:18;2.50;;;2.30;;
5833;SDS011;2943;48.012;10.968;2023-05-10T11:23:48;2.73;;;2.43;;
5833;SDS011;2943;48.012;10.968;2023-05-10T11:26:18;2.57;;;2.37;;
5833;SDS011;2943;48.012;10.968;2023-05-10T11:28:48;2.67;;;2.47;;
5833;SDS011;2943;48.012;10.968;2023-05-10T11:31:15;4.20;;;2.30;;
5833;SDS011;2943;48.012;10.968;2023-05-10T11:33:43;3.13;;;2.83;;
5833;SDS011;2943;48.012;10.968;2023-05-10T11:36:11;4.20;;;3.00;;
5833;SDS011;2943;48.012;10.968;2023-05-10T11:38:38;3.00;;;2.03;;
5833;SDS011;2943;48.012;10.968;2023-05-10T11:41:05;2.83;;;2.50;;
5833;SDS011;2943;48.012;10.968;2023-05-10T11:43:36;4.17;;;1.60;;
5833;SDS011;2943;48.012;10.968;2023-05-10T11:46:03;2.37;;;1.90;;
5833;SDS011;2943;48.012;10.968;2023-05-10T11:48:31;1.80;;;1.47;;
5833;SDS011;2943;48.012;10.968;2023-05-10T11:50:58;2.70;;;1.40;;
5833;SDS011;2943;48.012;10.968;2023-05-10T11:53:27;2.00;;;1.80;;
5833;SDS011;2943;48.012;10.968;2023-05-10T11:55:54;3.73;;;1.60;;
5833;SDS011;2943;48.012;10.968;2023-05-10T11:58:23;1.60;;;1.50;;
5833;SDS011;2943;48.012;10.968;2023-05-10T12:00:51;1.77;;;1.67;;
5833;SDS011;2943;48.012;10.968;2023-05-10T12:03:18;1.80;;;1.70;;
5833;SDS011;2943;48.012;10.968;2023-05-10T12:05:46;2.33;;;2.13;;
5833;SDS011;2943;48.012;10.968;2023-05-10T12:08:15;1.93;;;1.77;;
5833;SDS011;2943;48.012;10.968;2023-05-10T12:10:46;2.13;;;1.90;;
5833;SDS011;2943;48.012;10.968;2023-05-10T12:13:13;2.20;;;2.00;;
5833;SDS011;2943;48.012;10.968;2023-05-10T12:15:41;3.53;;;2.00;;
5833;SDS011;2943;48.012;10.968;2023-05-10T12:18:10;3.63;;;2.00;;
5833;SDS011;2943;48.012;10.968;2023-05-10T12:20:37;6.20;;;1.87;;
5833;SDS011;2943;48.012;10.968;2023-05-10T12:23:04;2.80;;;1.63;;
5833;SDS011;2943;48.012;10.968;2023-05-10T12:25:32;1.60;;;1.50;;
5833;SDS011;2943;48.012;10.968;2023-05-10T12:28:02;2.00;;;1.30;;
5833;SDS011;2943;48.012;10.968;2023-05-10T12:30:33;2.53;;;1.30;;
5833;SDS011;2943;48.012;10.968;2023-05-10T12:33:01;2.37;;;1.30;;
5833;SDS011;2943;48.012;10.968;2023-05-10T12:35:42;1.30;;;1.20;;
5833;SDS011;2943;48.012;10.968;2023-05-10T12:38:24;1.20;;;1.10;;
5833;SDS011;2943;48.012;10.968;2023-05-10T12:40:52;6.33;;;1.43;;
5833;SDS011;2943;48.012;10.968;2023-05-10T12:43:18;3.13;;;1.30;;
5833;SDS011;2943;48.012;10.968;2023-05-10T12:45:45;1.40;;;1.30;;
5833;SDS011;2943;48.012;10.968;2023-05-10T12:48:13;1.60;;;1.50;;
5833;SDS011;2943;48.012;10.968;2023-05-10T12:50:42;2.13;;;1.93;;
5833;SDS011;2943;48.012;10.968;2023-05-10T12:53:08;4.60;;;1.97;;
5833;SDS011;2943;48.012;10.968;2023-05-10T12:55:35;3.30;;;2.13;;
5833;SDS011;2943;48.012;10.968;2023-05-10T12:58:02;2.67;;;1.70;;
5833;SDS011;2943;48.012;10.968;2023-05-10T13:00:29;2.00;;;1.90;;
5833;SDS011;2943;48.012;10.968;2023-05-10T13:02:57;1.20;;;1.10;;
5833;SDS011;2943;48.012;10.968;2023-05-10T13:05:24;2.50;;;1.90;;
5833;SDS011;2943;48.012;10.968;2023-05-10T13:07:52;3.27;;;1.43;;
5833;SDS011;2943;48.012;10.968;2023-05-10T13:10:19;1.60;;;1.50;;
5833;SDS011;2943;48.012;10.968;2023-05-10T13:12:47;1.30;;;1.20;;
5833;SDS011;2943;48.012;10.968;2023-05-10T13:15:14;1.20;;;1.10;;
5833;SDS011;2943;48.012;10.968;2023-05-10T13:17:43;1.40;;;1.20;;
5833;SDS011;2943;48.012;10.968;2023-05-10T13:20:34;1.00;;;1.00;;
5833;SDS011;2943;48.012;10.968;2023-05-10T13:23:02;1.67;;;1.30;;
5833;SDS011;2943;48.012;10.968;2023-05-10T13:25:29;1.00;;;1.00;;
5833;SDS011;2943;48.012;10.968;2023-05-10T13:27:56;1.03;;;1.00;;
5833;SDS011;2943;48.012;10.968;2023-05-10T13:30:23;1.77;;;1.23;;
5833;SDS011;2943;48.012;10.968;2023-05-10T13:32:50;1.47;;;1.30;;
5833;SDS011;2943;48.012;10.968;2023-05-10T13:35:17;2.27;;;1.20;;
5833;SDS011;2943;48.012;10.968;2023-05-10T13:37:43;3.47;;;1.27;;
5833;SDS011;2943;48.012;10.968;2023-05-10T13:40:12;1.40;;;1.30;;
5833;SDS011;2943;48.012;10.968;2023-05-10T13:42:40;2.00;;;1.40;;
5833;SDS011;2943;48.012;10.968;2023-05-10T13:45:07;2.40;;;1.40;;
5833;SDS011;2943;48.012;10.968;2023-05-10T13:47:36;2.40;;;1.40;;
5833;SDS011;2943;48.012;10.968;2023-05-10T13:50:03;1.73;;;1.40;;
5833;SDS011;2943;48.012;10.968;2023-05-10T13:52:31;4.43;;;1.50;;
5833;SDS011;2943;48.012;10.968;2023-05-10T13:54:58;2.77;;;1.40;;
5833;SDS011;2943;48.012;10.968;2023-05-10T13:57:26;1.33;;;1.23;;
5833;SDS011;2943;48.012;10.968;2023-05-10T13:59:53;4.50;;;1.73;;
5833;SDS011;2943;48.012;10.968;2023-05-10T14:02:21;1.37;;;1.27;;
5833;SDS011;2943;48.012;10.968;2023-05-10T14:04:49;1.50;;;1.40;;
5833;SDS011;2943;48.012;10.968;2023-05-10T14:07:16;4.47;;;1.30;;
5833;SDS011;2943;48.012;10.968;2023-05-10T14:09:43;1.47;;;1.37;;
5833;SDS011;2943;48.012;10.968;2023-05-10T14:12:10;4.80;;;1.57;;
5833;SDS011;2943;48.012;10.968;2023-05-10T14:14:40;1.43;;;1.30;;
5833;SDS011;2943;48.012;10.968;2023-05-10T14:17:07;3.43;;;1.70;;
5833;SDS011;2943;48.012;10.968;2023-05-10T14:19:34;6.10;;;1.60;;
5833;SDS011;2943;48.012;10.968;2023-05-10T14:22:01;1.60;;;1.30;;
5833;SDS011;2943;48.012;10.968;2023-05-10T14:24:28;2.03;;;1.43;;
5833;SDS011;2943;48.012;10.968;2023-05-10T14:26:55;1.40;;;1.30;;
5833;SDS011;2943;48.012;10.968;2023-05-10T14:29:22;1.90;;;1.47;;
5833;SDS011;2943;48.012;10.968;2023-05-10T14:31:50;1.40;;;1.30;;
5833;SDS011;2943;48.012;10.968;2023-05-10T14:34:17;1.50;;;1.40;;
5833;SDS011;2943;48.012;10.968;2023-05-10T14:36:44;1.90;;;1.30;;
5833;SDS011;2943;48.012;10.968;2023-05-10T14:39:11;1.93;;;1.40;;
5833;SDS011;2943;48.012;10.968;2023-05-10T14:41:38;2.50;;;1.40;;
5833;SDS011;2943;48.012;10.968;2023-05-10T14:44:07;3.03;;;1.63;;
5833;SDS011;2943;48.012;10.968;2023-05-10T14:46:35;1.60;;;1.50;;
5833;SDS011;2943;48.012;10.968;2023-05-10T14:49:03;2.20;;;1.40;;
5833;SDS011;2943;48.012;10.968;2023-05-10T14:51:30;4.33;;;1.80;;
5833;SDS011;2943;48.012;10.968;2023-05-10T14:53:56;1.63;;;1.30;;
5833;SDS011;2943;48.012;10.968;2023-05-10T14:56:23;2.00;;;1.80;;
5833;SDS011;2943;48.012;10.968;2023-05-10T14:58:50;2.10;;;1.50;;
5833;SDS011;2943;48.012;10.968;2023-05-10T15:01:17;1.60;;;1.50;;
5833;SDS011;2943;48.012;10.968;2023-05-10T15:03:44;2.67;;;1.70;;
5833;SDS011;2943;48.012;10.968;2023-05-10T15:06:13;1.97;;;1.80;;
5833;SDS011;2943;48.012;10.968;2023-05-10T15:08:40;2.80;;;1.83;;
5833;SDS011;2943;48.012;10.968;2023-05-10T15:11:07;2.03;;;1.50;;
5833;SDS011;2943;48.012;10.968;2023-05-10T15:13:34;1.80;;;1.70;;
5833;SDS011;2943;48.012;10.968;2023-05-10T15:16:01;1.77;;;1.67;;
5833;SDS011;2943;48.012;10.968;2023-05-10T15:18:28;1.70;;;1.60;;
5833;SDS011;2943;48.012;10.968;2023-05-10T15:20:55;1.93;;;1.60;;
5833;SDS011;2943;48.012;10.968;2023-05-10T15:23:24;3.73;;;1.50;;
5833;SDS011;2943;48.012;10.968;2023-05-10T15:25:51;2.53;;;1.50;;